sensor_id;sensor_type;location;lat;lon;timestamp;pressure;altitude;pressure_sealevel;temperature;humidity
11448;BME280;43755;49.736;8.734;2024-01-15T00:00:37;96746.19;;;-4.44;100.00
11448;BME280;43755;49.736;8.734;2024-01-15T00:02:38;96744.47;;;-4.51;100.00
11448;BME280;43755;49.736;8.734;2024-01-15T00:04:41;96742.78;;;-4.48;100.00
11448;BME280;43755;49.736;8.734;2024-01-15T00:06:43;96739.31;;;-4.48;100.00
11448;BME280;43755;49.736;8.734;2024-01-15T00:08:44;96743.59;;;-4.47;100.00
11448;BME280;43755;49.736;8.734;2024-01-15T00:10:45;96740.19;;;-4.48;100.00
11448;BME280;43755;49.736;8.734;2024-01-15T00:12:47;96728.97;;;-4.44;100.00
11448;BME280;43755;49.736;8.734;2024-01-15T00:14:48;96729.84;;;-4.45;100.00
11448;BME280;43755;49.736;8.734;2024-01-15T00:16:49;96726.41;;;-4.45;100.00
11448;BME280;43755;49.736;8.734;2024-01-15T00:18:51;96721.19;;;-4.39;100.00
11448;BME280;43755;49.736;8.734;2024-01-15T00:20:54;96722.03;;;-4.36;100.00
11448;BME280;43755;49.736;8.734;2024-01-15T00:22:55;96711.72;;;-4.34;100.00
11448;BME280;43755;49.736;8.734;2024-01-15T00:24:56;96732.38;;;-4.39;100.00
11448;BME280;43755;49.736;8.734;2024-01-15T00:26:58;96710.84;;;-4.33;100.00
11448;BME280;43755;49.736;8.734;2024-01-15T00:28:58;96716.00;;;-4.35;100.00
11448;BME280;43755;49.736;8.734;2024-01-15T00:31:00;96700.56;;;-4.36;100.00
11448;BME280;43755;49.736;8.734;2024-01-15T00:33:00;96704.84;;;-4.40;100.00
11448;BME280;43755;49.736;8.734;2024-01-15T00:35:02;96704.88;;;-4.43;100.00
11448;BME280;43755;49.736;8.734;2024-01-15T00:37:05;96699.69;;;-4.40;100.00
11448;BME280;43755;49.736;8.734;2024-01-15T00:39:07;96710.88;;;-4.38;100.00
11448;BME280;43755;49.736;8.734;2024-01-15T00:41:07;96716.94;;;-4.42;100.00
11448;BME280;43755;49.736;8.734;2024-01-15T00:43:09;96720.38;;;-4.44;100.00
11448;BME280;43755;49.736;8.734;2024-01-15T00:45:10;96714.34;;;-4.46;100.00
11448;BME280;43755;49.736;8.734;2024-01-15T00:47:11;96704.88;;;-4.44;100.00
11448;BME280;43755;49.736;8.734;2024-01-15T00:49:12;96704.88;;;-4.47;100.00
11448;BME280;43755;49.736;8.734;2024-01-15T00:51:14;96701.41;;;-4.40;100.00
11448;BME280;43755;49.736;8.734;2024-01-15T00:53:16;96695.34;;;-4.35;100.00
11448;BME280;43755;49.736;8.734;2024-01-15T00:55:18;96702.25;;;-4.35;100.00
11448;BME280;43755;49.736;8.734;2024-01-15T00:57:19;96697.97;;;-4.38;100.00
11448;BME280;43755;49.736;8.734;2024-01-15T00:59:20;96698.84;;;-4.43;100.00
11448;BME280;43755;49.736;8.734;2024-01-15T01:01:21;96697.97;;;-4.41;100.00
11448;BME280;43755;49.736;8.734;2024-01-15T01:03:22;96692.81;;;-4.38;100.00
11448;BME280;43755;49.736;8.734;2024-01-15T01:05:24;96691.94;;;-4.41;100.00
11448;BME280;43755;49.736;8.734;2024-01-15T01:07:25;96687.63;;;-4.41;100.00
11448;BME280;43755;49.736;8.734;2024-01-15T01:09:28;96699.59;;;-4.19;100.00
11448;BME280;43755;49.736;8.734;2024-01-15T01:11:30;96699.56;;;-4.16;100.00
11448;BME280;43755;49.736;8.734;2024-01-15T01:13:31;96702.06;;;-4.02;100.00
11448;BME280;43755;49.736;8.734;2024-01-15T01:15:33;96704.72;;;-4.13;100.00
11448;BME280;43755;49.736;8.734;2024-01-15T01:17:34;96689.25;;;-4.19;100.00
11448;BME280;43755;49.736;8.734;2024-01-15T01:19:36;96695.25;;;-4.17;100.00
11448;BME280;43755;49.736;8.734;2024-01-15T01:21:37;96684.06;;;-4.16;100.00
11448;BME280;43755;49.736;8.734;2024-01-15T01:23:39;96680.63;;;-4.15;100.00
11448;BME280;43755;49.736;8.734;2024-01-15T01:25:41;96692.66;;;-4.14;100.00
11448;BME280;43755;49.736;8.734;2024-01-15T01:27:43;96691.81;;;-4.17;100.00
11448;BME280;43755;49.736;8.734;2024-01-15T01:29:44;96692.63;;;-4.10;100.00
11448;BME280;43755;49.736;8.734;2024-01-15T01:31:46;96688.31;;;-4.08;100.00
11448;BME280;43755;49.736;8.734;2024-01-15T01:33:47;96690.09;;;-4.17;100.00
11448;BME280;43755;49.736;8.734;2024-01-15T01:35:49;96703.84;;;-4.15;100.00
11448;BME280;43755;49.736;8.734;2024-01-15T01:37:50;96698.63;;;-4.04;100.00
11448;BME280;43755;49.736;8.734;2024-01-15T01:39:52;96699.44;;;-3.99;100.00
11448;BME280;43755;49.736;8.734;2024-01-15T01:41:54;96696.84;;;-3.99;100.00
11448;BME280;43755;49.736;8.734;2024-01-15T01:43:56;96711.50;;;-3.99;100.00
11448;BME280;43755;49.736;8.734;2024-01-15T01:46:00;96696.84;;;-3.96;100.00
11448;BME280;43755;49.736;8.734;2024-01-15T01:48:02;96709.72;;;-3.90;100.00
11448;BME280;43755;49.736;8.734;2024-01-15T01:50:04;96706.31;;;-3.95;100.00
11448;BME280;43755;49.736;8.734;2024-01-15T01:52:06;96702.84;;;-3.89;100.00
11448;BME280;43755;49.736;8.734;2024-01-15T01:54:08;96697.66;;;-3.89;100.00
11448;BME280;43755;49.736;8.734;2024-01-15T01:56:13;96701.94;;;-3.87;100.00
11448;BME280;43755;49.736;8.734;2024-01-15T01:58:16;96711.41;;;-3.87;100.00
11448;BME280;43755;49.736;8.734;2024-01-15T02:00:18;96703.63;;;-3.83;100.00
11448;BME280;43755;49.736;8.734;2024-01-15T02:02:20;96704.47;;;-3.79;100.00
11448;BME280;43755;49.736;8.734;2024-01-15T02:04:23;96707.88;;;-3.76;100.00
11448;BME280;43755;49.736;8.734;2024-01-15T02:06:24;96707.06;;;-3.81;100.00
11448;BME280;43755;49.736;8.734;2024-01-15T02:08:25;96705.34;;;-3.79;100.00
11448;BME280;43755;49.736;8.734;2024-01-15T02:10:27;96707.03;;;-3.76;100.00
11448;BME280;43755;49.736;8.734;2024-01-15T02:12:28;96711.31;;;-3.75;100.00
11448;BME280;43755;49.736;8.734;2024-01-15T02:14:31;96713.88;;;-3.71;100.00
11448;BME280;43755;49.736;8.734;2024-01-15T02:16:33;96712.19;;;-3.72;100.00
11448;BME280;43755;49.736;8.734;2024-01-15T02:18:40;96713.91;;;-3.72;100.00
11448;BME280;43755;49.736;8.734;2024-01-15T02:20:42;96711.28;;;-3.69;100.00
11448;BME280;43755;49.736;8.734;2024-01-15T02:22:44;96708.66;;;-3.61;100.00
11448;BME280;43755;49.736;8.734;2024-01-15T02:24:46;96709.50;;;-3.61;100.00
11448;BME280;43755;49.736;8.734;2024-01-15T02:26:47;96701.66;;;-3.53;100.00
11448;BME280;43755;49.736;8.734;2024-01-15T02:28:48;96696.47;;;-3.50;100.00
11448;BME280;43755;49.736;8.734;2024-01-15T02:30:50;96679.25;;;-3.53;100.00
11448;BME280;43755;49.736;8.734;2024-01-15T02:32:50;96681.78;;;-3.45;100.00
11448;BME280;43755;49.736;8.734;2024-01-15T02:34:52;96703.47;;;-3.61;100.00
11448;BME280;43755;49.736;8.734;2024-01-15T02:36:56;96701.75;;;-3.59;100.00
11448;BME280;43755;49.736;8.734;2024-01-15T02:38:57;96674.13;;;-3.57;100.00
11448;BME280;43755;49.736;8.734;2024-01-15T02:40:59;96680.91;;;-3.44;100.00
11448;BME280;43755;49.736;8.734;2024-01-15T02:43:01;96688.78;;;-3.55;100.00
11448;BME280;43755;49.736;8.734;2024-01-15T02:45:03;96692.19;;;-3.53;100.00
11448;BME280;43755;49.736;8.734;2024-01-15T02:47:05;96684.38;;;-3.47;100.00
11448;BME280;43755;49.736;8.734;2024-01-15T02:49:06;96677.47;;;-3.43;100.00
11448;BME280;43755;49.736;8.734;2024-01-15T02:51:08;96673.16;;;-3.46;100.00
11448;BME280;43755;49.736;8.734;2024-01-15T02:53:09;96677.53;;;-3.49;100.00
11448;BME280;43755;49.736;8.734;2024-01-15T02:55:10;96673.22;;;-3.53;100.00
11448;BME280;43755;49.736;8.734;2024-01-15T02:57:13;96672.41;;;-3.55;100.00
11448;BME280;43755;49.736;8.734;2024-01-15T02:59:15;96668.91;;;-3.51;100.00
11448;BME280;43755;49.736;8.734;2024-01-15T03:01:18;96665.47;;;-3.52;100.00
11448;BME280;43755;49.736;8.734;2024-01-15T03:03:19;96684.47;;;-3.56;100.00
11448;BME280;43755;49.736;8.734;2024-01-15T03:05:21;96658.63;;;-3.57;100.00
11448;BME280;43755;49.736;8.734;2024-01-15T03:07:22;96677.56;;;-3.54;100.00
11448;BME280;43755;49.736;8.734;2024-01-15T03:09:24;96668.97;;;-3.54;100.00
11448;BME280;43755;49.736;8.734;2024-01-15T03:11:25;96676.72;;;-3.56;100.00
11448;BME280;43755;49.736;8.734;2024-01-15T03:13:28;96673.16;;;-3.46;100.00
11448;BME280;43755;49.736;8.734;2024-01-15T03:15:29;96664.59;;;-3.48;100.00
11448;BME280;43755;49.736;8.734;2024-01-15T03:17:31;96666.31;;;-3.48;100.00
11448;BME280;43755;49.736;8.734;2024-01-15T03:19:34;96663.72;;;-3.48;100.00
11448;BME280;43755;49.736;8.734;2024-01-15T03:21:36;96670.63;;;-3.52;100.00
11448;BME280;43755;49.736;8.734;2024-01-15T03:23:36;96671.50;;;-3.51;100.00
11448;BME280;43755;49.736;8.734;2024-01-15T03:25:38;96661.16;;;-3.51;100.00
11448;BME280;43755;49.736;8.734;2024-01-15T03:27:39;96666.28;;;-3.45;100.00
11448;BME280;43755;49.736;8.734;2024-01-15T03:29:42;96661.06;;;-3.41;100.00
11448;BME280;43755;49.736;8.734;2024-01-15T03:31:43;96674.88;;;-3.43;100.00
11448;BME280;43755;49.736;8.734;2024-01-15T03:33:44;96671.44;;;-3.47;100.00
11448;BME280;43755;49.736;8.734;2024-01-15T03:35:45;96662.81;;;-3.46;100.00
11448;BME280;43755;49.736;8.734;2024-01-15T03:37:46;96682.66;;;-3.46;100.00
11448;BME280;43755;49.736;8.734;2024-01-15T03:39:48;96680.09;;;-3.48;100.00
11448;BME280;43755;49.736;8.734;2024-01-15T03:41:48;96673.13;;;-3.40;100.00
11448;BME280;43755;49.736;8.734;2024-01-15T03:43:50;96667.00;;;-3.33;100.00
11448;BME280;43755;49.736;8.734;2024-01-15T03:45:52;96673.09;;;-3.38;100.00
11448;BME280;43755;49.736;8.734;2024-01-15T03:47:54;96663.63;;;-3.36;100.00
11448;BME280;43755;49.736;8.734;2024-01-15T03:49:54;96663.63;;;-3.38;100.00
11448;BME280;43755;49.736;8.734;2024-01-15T03:51:55;96662.72;;;-3.35;100.00
11448;BME280;43755;49.736;8.734;2024-01-15T03:53:57;96642.88;;;-3.33;100.00
11448;BME280;43755;49.736;8.734;2024-01-15T03:55:58;96642.06;;;-3.37;100.00
11448;BME280;43755;49.736;8.734;2024-01-15T03:58:00;96654.09;;;-3.36;100.00
11448;BME280;43755;49.736;8.734;2024-01-15T04:00:01;96650.75;;;-3.42;100.00
11448;BME280;43755;49.736;8.734;2024-01-15T04:02:05;96652.44;;;-3.40;100.00
11448;BME280;43755;49.736;8.734;2024-01-15T04:04:06;96647.19;;;-3.34;100.00
11448;BME280;43755;49.736;8.734;2024-01-15T04:06:08;96643.75;;;-3.33;100.00
11448;BME280;43755;49.736;8.734;2024-01-15T04:08:08;96630.75;;;-3.28;100.00
11448;BME280;43755;49.736;8.734;2024-01-15T04:10:10;96639.38;;;-3.26;100.00
11448;BME280;43755;49.736;8.734;2024-01-15T04:12:11;96630.75;;;-3.26;100.00
11448;BME280;43755;49.736;8.734;2024-01-15T04:14:12;96640.34;;;-3.38;100.00
11448;BME280;43755;49.736;8.734;2024-01-15T04:16:13;96641.22;;;-3.40;100.00
11448;BME280;43755;49.736;8.734;2024-01-15T04:18:16;96642.94;;;-3.38;100.00
11448;BME280;43755;49.736;8.734;2024-01-15T04:20:18;96638.56;;;-3.31;100.00
11448;BME280;43755;49.736;8.734;2024-01-15T04:22:19;96618.69;;;-3.26;100.00
11448;BME280;43755;49.736;8.734;2024-01-15T04:24:20;96623.00;;;-3.26;100.00
11448;BME280;43755;49.736;8.734;2024-01-15T04:26:21;96630.88;;;-3.39;100.00
11448;BME280;43755;49.736;8.734;2024-01-15T04:28:23;96636.09;;;-3.45;100.00
11448;BME280;43755;49.736;8.734;2024-01-15T04:30:24;96628.34;;;-3.46;100.00
11448;BME280;43755;49.736;8.734;2024-01-15T04:32:25;96621.53;;;-3.52;100.00
11448;BME280;43755;49.736;8.734;2024-01-15T04:34:27;96618.19;;;-3.60;100.00
11448;BME280;43755;49.736;8.734;2024-01-15T04:36:29;96624.22;;;-3.62;100.00
11448;BME280;43755;49.736;8.734;2024-01-15T04:38:30;96619.84;;;-3.54;100.00
11448;BME280;43755;49.736;8.734;2024-01-15T04:40:32;96615.53;;;-3.55;100.00
11448;BME280;43755;49.736;8.734;2024-01-15T04:42:34;96624.91;;;-3.47;100.00
11448;BME280;43755;49.736;8.734;2024-01-15T04:44:35;96621.50;;;-3.49;100.00
11448;BME280;43755;49.736;8.734;2024-01-15T04:46:36;96630.06;;;-3.45;100.00
11448;BME280;43755;49.736;8.734;2024-01-15T04:48:38;96621.50;;;-3.50;100.00
11448;BME280;43755;49.736;8.734;2024-01-15T04:50:41;96616.28;;;-3.47;100.00
11448;BME280;43755;49.736;8.734;2024-01-15T04:52:42;96619.75;;;-3.47;100.00
11448;BME280;43755;49.736;8.734;2024-01-15T04:54:43;96611.94;;;-3.41;100.00
11448;BME280;43755;49.736;8.734;2024-01-15T04:56:45;96612.78;;;-3.39;100.00
11448;BME280;43755;49.736;8.734;2024-01-15T04:58:46;96608.47;;;-3.40;100.00
11448;BME280;43755;49.736;8.734;2024-01-15T05:00:48;96611.09;;;-3.43;100.00
11448;BME280;43755;49.736;8.734;2024-01-15T05:02:49;96611.94;;;-3.41;100.00
11448;BME280;43755;49.736;8.734;2024-01-15T05:04:50;96607.66;;;-3.45;100.00
11448;BME280;43755;49.736;8.734;2024-01-15T05:06:54;96617.22;;;-3.50;100.00
11448;BME280;43755;49.736;8.734;2024-01-15T05:08:56;96614.63;;;-3.50;100.00
11448;BME280;43755;49.736;8.734;2024-01-15T05:10:57;96599.97;;;-3.49;100.00
11448;BME280;43755;49.736;8.734;2024-01-15T05:12:59;96617.19;;;-3.48;100.00
11448;BME280;43755;49.736;8.734;2024-01-15T05:15:00;96601.66;;;-3.47;100.00
11448;BME280;43755;49.736;8.734;2024-01-15T05:17:02;96609.47;;;-3.53;100.00
11448;BME280;43755;49.736;8.734;2024-01-15T05:19:03;96614.56;;;-3.47;100.00
11448;BME280;43755;49.736;8.734;2024-01-15T05:21:05;96611.97;;;-3.45;100.00
11448;BME280;43755;49.736;8.734;2024-01-15T05:23:07;96618.88;;;-3.47;100.00
11448;BME280;43755;49.736;8.734;2024-01-15T05:25:09;96611.97;;;-3.42;100.00
11448;BME280;43755;49.736;8.734;2024-01-15T05:27:09;96598.13;;;-3.40;100.00
11448;BME280;43755;49.736;8.734;2024-01-15T05:29:11;96596.34;;;-3.33;100.00
11448;BME280;43755;49.736;8.734;2024-01-15T05:31:12;96599.78;;;-3.34;100.00
11448;BME280;43755;49.736;8.734;2024-01-15T05:33:13;96600.72;;;-3.38;100.00
11448;BME280;43755;49.736;8.734;2024-01-15T05:35:14;96602.38;;;-3.31;100.00
11448;BME280;43755;49.736;8.734;2024-01-15T05:37:15;96595.41;;;-3.27;100.00
11448;BME280;43755;49.736;8.734;2024-01-15T05:39:18;96585.13;;;-3.34;100.00
11448;BME280;43755;49.736;8.734;2024-01-15T05:41:19;96586.00;;;-3.32;100.00
11448;BME280;43755;49.736;8.734;2024-01-15T05:43:21;96588.56;;;-3.30;100.00
11448;BME280;43755;49.736;8.734;2024-01-15T05:45:22;96580.75;;;-3.27;100.00
11448;BME280;43755;49.736;8.734;2024-01-15T05:47:24;96584.94;;;-3.17;100.00
11448;BME280;43755;49.736;8.734;2024-01-15T05:49:25;96586.78;;;-3.26;100.00
11448;BME280;43755;49.736;8.734;2024-01-15T05:51:26;96591.97;;;-3.28;100.00
11448;BME280;43755;49.736;8.734;2024-01-15T05:53:28;96590.19;;;-3.21;100.00
11448;BME280;43755;49.736;8.734;2024-01-15T05:55:31;96603.97;;;-3.22;100.00
11448;BME280;43755;49.736;8.734;2024-01-15T05:57:32;96597.06;;;-3.19;100.00
11448;BME280;43755;49.736;8.734;2024-01-15T05:59:33;96589.38;;;-3.30;100.00
11448;BME280;43755;49.736;8.734;2024-01-15T06:01:36;96597.00;;;-3.17;100.00
11448;BME280;43755;49.736;8.734;2024-01-15T06:03:37;96596.22;;;-3.22;100.00
11448;BME280;43755;49.736;8.734;2024-01-15T06:05:39;96602.25;;;-3.20;100.00
11448;BME280;43755;49.736;8.734;2024-01-15T06:07:41;96584.13;;;-3.20;100.00
11448;BME280;43755;49.736;8.734;2024-01-15T06:09:42;96584.13;;;-3.19;100.00
11448;BME280;43755;49.736;8.734;2024-01-15T06:11:45;96584.97;;;-3.18;100.00
11448;BME280;43755;49.736;8.734;2024-01-15T06:13:47;96586.72;;;-3.20;100.00
11448;BME280;43755;49.736;8.734;2024-01-15T06:15:48;96579.84;;;-3.23;100.00
11448;BME280;43755;49.736;8.734;2024-01-15T06:17:49;96582.50;;;-3.29;100.00
11448;BME280;43755;49.736;8.734;2024-01-15T06:19:51;96585.94;;;-3.28;100.00
11448;BME280;43755;49.736;8.734;2024-01-15T06:21:51;96578.97;;;-3.20;100.00
11448;BME280;43755;49.736;8.734;2024-01-15T06:23:52;96584.94;;;-3.17;100.00
11448;BME280;43755;49.736;8.734;2024-01-15T06:25:56;96584.13;;;-3.19;100.00
11448;BME280;43755;49.736;8.734;2024-01-15T06:27:59;96577.25;;;-3.21;100.00
11448;BME280;43755;49.736;8.734;2024-01-15T06:30:00;96572.84;;;-3.15;100.00
11448;BME280;43755;49.736;8.734;2024-01-15T06:32:03;96579.81;;;-3.21;100.00
11448;BME280;43755;49.736;8.734;2024-01-15T06:34:04;96574.59;;;-3.17;100.00
11448;BME280;43755;49.736;8.734;2024-01-15T06:36:06;96584.13;;;-3.19;100.00
11448;BME280;43755;49.736;8.734;2024-01-15T06:38:08;96584.16;;;-3.23;100.00
11448;BME280;43755;49.736;8.734;2024-01-15T06:40:09;96585.84;;;-3.21;100.00
11448;BME280;43755;49.736;8.734;2024-01-15T06:42:11;96589.25;;;-3.17;100.00
11448;BME280;43755;49.736;8.734;2024-01-15T06:44:14;96571.88;;;-3.06;100.00
11448;BME280;43755;49.736;8.734;2024-01-15T06:46:19;96581.44;;;-3.11;100.00
11448;BME280;43755;49.736;8.734;2024-01-15T06:48:21;96590.03;;;-3.11;100.00
11448;BME280;43755;49.736;8.734;2024-01-15T06:50:23;96590.09;;;-3.14;100.00
11448;BME280;43755;49.736;8.734;2024-01-15T06:52:25;96584.72;;;-3.00;100.00
11448;BME280;43755;49.736;8.734;2024-01-15T06:54:26;96583.94;;;-3.04;100.00
11448;BME280;43755;49.736;8.734;2024-01-15T06:56:27;96583.88;;;-2.99;100.00
11448;BME280;43755;49.736;8.734;2024-01-15T06:58:30;96588.16;;;-2.97;100.00
11448;BME280;43755;49.736;8.734;2024-01-15T07:00:33;96586.38;;;-2.93;100.00
11448;BME280;43755;49.736;8.734;2024-01-15T07:02:35;96579.41;;;-2.88;100.00
11448;BME280;43755;49.736;8.734;2024-01-15T07:04:36;96582.06;;;-2.94;100.00
11448;BME280;43755;49.736;8.734;2024-01-15T07:06:37;96579.53;;;-2.96;100.00
11448;BME280;43755;49.736;8.734;2024-01-15T07:08:39;96581.25;;;-2.98;100.00
11448;BME280;43755;49.736;8.734;2024-01-15T07:10:41;96576.91;;;-2.94;100.00
11448;BME280;43755;49.736;8.734;2024-01-15T07:12:42;96584.72;;;-3.00;100.00
11448;BME280;43755;49.736;8.734;2024-01-15T07:14:44;96579.47;;;-2.94;100.00
11448;BME280;43755;49.736;8.734;2024-01-15T07:16:46;96579.53;;;-2.96;100.00
11448;BME280;43755;49.736;8.734;2024-01-15T07:18:48;96583.72;;;-2.89;100.00
11448;BME280;43755;49.736;8.734;2024-01-15T07:20:49;96586.22;;;-2.81;100.00
11448;BME280;43755;49.736;8.734;2024-01-15T07:22:50;96587.94;;;-2.80;100.00
11448;BME280;43755;49.736;8.734;2024-01-15T07:24:51;96584.53;;;-2.83;100.00
11448;BME280;43755;49.736;8.734;2024-01-15T07:26:51;96585.28;;;-2.75;100.00
11448;BME280;43755;49.736;8.734;2024-01-15T07:28:53;96590.38;;;-2.71;100.00
11448;BME280;43755;49.736;8.734;2024-01-15T07:30:54;96589.50;;;-2.70;100.00
11448;BME280;43755;49.736;8.734;2024-01-15T07:32:57;96590.34;;;-2.66;100.00
11448;BME280;43755;49.736;8.734;2024-01-15T07:34:58;96592.97;;;-2.69;100.00
11448;BME280;43755;49.736;8.734;2024-01-15T07:36:59;96593.66;;;-2.58;100.00
11448;BME280;43755;49.736;8.734;2024-01-15T07:39:01;96589.44;;;-2.64;100.00
11448;BME280;43755;49.736;8.734;2024-01-15T07:41:03;96600.88;;;-2.78;100.00
11448;BME280;43755;49.736;8.734;2024-01-15T07:43:04;96588.75;;;-2.76;100.00
11448;BME280;43755;49.736;8.734;2024-01-15T07:45:06;96591.16;;;-2.64;100.00
11448;BME280;43755;49.736;8.734;2024-01-15T07:47:06;96593.72;;;-2.60;100.00
11448;BME280;43755;49.736;8.734;2024-01-15T07:49:10;96585.97;;;-2.61;100.00
11448;BME280;43755;49.736;8.734;2024-01-15T07:51:11;96591.16;;;-2.63;100.00
11448;BME280;43755;49.736;8.734;2024-01-15T07:53:13;96591.16;;;-2.64;100.00
11448;BME280;43755;49.736;8.734;2024-01-15T07:55:14;96588.56;;;-2.61;100.00
11448;BME280;43755;49.736;8.734;2024-01-15T07:57:15;96580.63;;;-2.51;100.00
11448;BME280;43755;49.736;8.734;2024-01-15T07:59:16;96581.50;;;-2.53;100.00
11448;BME280;43755;49.736;8.734;2024-01-15T08:01:18;96577.09;;;-2.47;100.00
11448;BME280;43755;49.736;8.734;2024-01-15T08:03:19;96565.84;;;-2.44;100.00
11448;BME280;43755;49.736;8.734;2024-01-15T08:05:22;96578.84;;;-2.47;100.00
11448;BME280;43755;49.736;8.734;2024-01-15T08:07:23;96575.50;;;-2.54;100.00
11448;BME280;43755;49.736;8.734;2024-01-15T08:09:25;96560.72;;;-2.47;100.00
11448;BME280;43755;49.736;8.734;2024-01-15T08:11:27;96558.97;;;-2.45;100.00
11448;BME280;43755;49.736;8.734;2024-01-15T08:13:28;96560.66;;;-2.42;100.00
11448;BME280;43755;49.736;8.734;2024-01-15T08:15:30;96564.81;;;-2.32;100.00
11448;BME280;43755;49.736;8.734;2024-01-15T08:17:32;96558.84;;;-2.37;100.00
11448;BME280;43755;49.736;8.734;2024-01-15T08:19:33;96571.72;;;-2.31;100.00
11448;BME280;43755;49.736;8.734;2024-01-15T08:21:36;96563.16;;;-2.36;100.00
11448;BME280;43755;49.736;8.734;2024-01-15T08:23:37;96567.31;;;-2.25;100.00
11448;BME280;43755;49.736;8.734;2024-01-15T08:25:39;96561.09;;;-2.16;100.00
11448;BME280;43755;49.736;8.734;2024-01-15T08:27:40;96564.63;;;-2.19;100.00
11448;BME280;43755;49.736;8.734;2024-01-15T08:29:42;96566.38;;;-2.21;100.00
11448;BME280;43755;49.736;8.734;2024-01-15T08:31:45;96555.94;;;-2.18;100.00
11448;BME280;43755;49.736;8.734;2024-01-15T08:33:46;96559.34;;;-2.14;100.00
11448;BME280;43755;49.736;8.734;2024-01-15T08:35:47;96563.59;;;-2.09;100.00
11448;BME280;43755;49.736;8.734;2024-01-15T08:37:50;96560.91;;;-2.04;100.00
11448;BME280;43755;49.736;8.734;2024-01-15T08:39:51;96567.81;;;-2.03;100.00
11448;BME280;43755;49.736;8.734;2024-01-15T08:41:53;96572.81;;;-1.92;100.00
11448;BME280;43755;49.736;8.734;2024-01-15T08:43:54;96570.19;;;-1.89;100.00
11448;BME280;43755;49.736;8.734;2024-01-15T08:45:55;96557.25;;;-1.92;100.00
11448;BME280;43755;49.736;8.734;2024-01-15T08:47:57;96563.31;;;-1.93;100.00
11448;BME280;43755;49.736;8.734;2024-01-15T08:49:58;96565.78;;;-1.86;100.00
11448;BME280;43755;49.736;8.734;2024-01-15T08:52:00;96549.28;;;-1.82;100.00
11448;BME280;43755;49.736;8.734;2024-01-15T08:54:03;96550.22;;;-1.84;100.00
11448;BME280;43755;49.736;8.734;2024-01-15T08:56:04;96537.25;;;-1.83;100.00
11448;BME280;43755;49.736;8.734;2024-01-15T08:58:06;96552.75;;;-1.81;100.00
11448;BME280;43755;49.736;8.734;2024-01-15T09:00:08;96545.91;;;-1.85;100.00
11448;BME280;43755;49.736;8.734;2024-01-15T09:02:10;96536.28;;;-1.79;100.00
11448;BME280;43755;49.736;8.734;2024-01-15T09:04:11;96538.88;;;-1.77;100.00
11448;BME280;43755;49.736;8.734;2024-01-15T09:06:13;96537.81;;;-1.69;100.00
11448;BME280;43755;49.736;8.734;2024-01-15T09:08:14;96540.25;;;-1.59;100.00
11448;BME280;43755;49.736;8.734;2024-01-15T09:10:17;96534.25;;;-1.61;100.00
11448;BME280;43755;49.736;8.734;2024-01-15T09:12:18;96524.72;;;-1.61;100.00
11448;BME280;43755;49.736;8.734;2024-01-15T09:14:22;96548.31;;;-1.75;100.00
11448;BME280;43755;49.736;8.734;2024-01-15T09:16:24;96527.47;;;-1.70;100.00
11448;BME280;43755;49.736;8.734;2024-01-15T09:18:25;96542.69;;;-1.52;100.00
11448;BME280;43755;49.736;8.734;2024-01-15T09:20:27;96553.94;;;-1.51;100.00
11448;BME280;43755;49.736;8.734;2024-01-15T09:22:28;96552.41;;;-1.63;100.00
11448;BME280;43755;49.736;8.734;2024-01-15T09:24:30;96554.25;;;-1.68;100.00
11448;BME280;43755;49.736;8.734;2024-01-15T09:26:32;96549.91;;;-1.66;100.00
11448;BME280;43755;49.736;8.734;2024-01-15T09:28:34;96554.31;;;-1.71;100.00
11448;BME280;43755;49.736;8.734;2024-01-15T09:30:34;96565.56;;;-1.72;100.00
11448;BME280;43755;49.736;8.734;2024-01-15T09:32:36;96567.16;;;-1.65;100.00
11448;BME280;43755;49.736;8.734;2024-01-15T09:34:38;96574.13;;;-1.70;100.00
11448;BME280;43755;49.736;8.734;2024-01-15T09:36:40;96573.25;;;-1.68;100.00
11448;BME280;43755;49.736;8.734;2024-01-15T09:38:42;96564.38;;;-1.54;100.00
11448;BME280;43755;49.736;8.734;2024-01-15T09:40:45;96554.66;;;-1.45;100.00
11448;BME280;43755;49.736;8.734;2024-01-15T09:42:49;96562.53;;;-1.48;100.00
11448;BME280;43755;49.736;8.734;2024-01-15T09:44:50;96570.31;;;-1.48;100.00
11448;BME280;43755;49.736;8.734;2024-01-15T09:46:52;96573.88;;;-1.53;100.00
11448;BME280;43755;49.736;8.734;2024-01-15T09:48:54;96565.16;;;-1.51;100.00
11448;BME280;43755;49.736;8.734;2024-01-15T09:50:57;96564.28;;;-1.50;100.00
11448;BME280;43755;49.736;8.734;2024-01-15T09:52:59;96560.69;;;-1.43;100.00
11448;BME280;43755;49.736;8.734;2024-01-15T09:55:01;96554.44;;;-1.33;100.00
11448;BME280;43755;49.736;8.734;2024-01-15T09:57:03;96548.50;;;-1.38;100.00
11448;BME280;43755;49.736;8.734;2024-01-15T09:59:06;96553.72;;;-1.41;100.00
11448;BME280;43755;49.736;8.734;2024-01-15T10:01:08;96557.13;;;-1.37;100.00
11448;BME280;43755;49.736;8.734;2024-01-15T10:03:09;96559.75;;;-1.40;100.00
11448;BME280;43755;49.736;8.734;2024-01-15T10:05:12;96551.31;;;-1.50;100.00
11448;BME280;43755;49.736;8.734;2024-01-15T10:07:15;96557.28;;;-1.46;100.00
11448;BME280;43755;49.736;8.734;2024-01-15T10:09:18;96551.06;;;-1.36;100.00
11448;BME280;43755;49.736;8.734;2024-01-15T10:11:19;96552.06;;;-1.43;100.00
11448;BME280;43755;49.736;8.734;2024-01-15T10:13:22;96553.59;;;-1.35;100.00
11448;BME280;43755;49.736;8.734;2024-01-15T10:15:25;96545.06;;;-1.40;100.00
11448;BME280;43755;49.736;8.734;2024-01-15T10:17:27;96538.13;;;-1.39;100.00
11448;BME280;43755;49.736;8.734;2024-01-15T10:19:28;96550.38;;;-1.46;100.00
11448;BME280;43755;49.736;8.734;2024-01-15T10:21:31;96546.00;;;-1.44;100.00
11448;BME280;43755;49.736;8.734;2024-01-15T10:23:34;96540.81;;;-1.42;100.00
11448;BME280;43755;49.736;8.734;2024-01-15T10:25:36;96536.53;;;-1.45;100.00
11448;BME280;43755;49.736;8.734;2024-01-15T10:27:37;96527.06;;;-1.47;100.00
11448;BME280;43755;49.736;8.734;2024-01-15T10:29:38;96534.03;;;-1.51;100.00
11448;BME280;43755;49.736;8.734;2024-01-15T10:31:41;96524.31;;;-1.40;100.00
11448;BME280;43755;49.736;8.734;2024-01-15T10:33:42;96527.91;;;-1.47;100.00
11448;BME280;43755;49.736;8.734;2024-01-15T10:35:43;96524.25;;;-1.37;100.00